sensor_id;sensor_type;location;lat;lon;timestamp;temperature;humidity
42199;DHT22;27868;45.184;5.786;2023-04-26T00:00:19;12.90;68.60
42199;DHT22;27868;45.184;5.786;2023-04-26T00:03:04;12.80;69.30
42199;DHT22;27868;45.184;5.786;2023-04-26T00:05:50;12.70;70.20
42199;DHT22;27868;45.184;5.786;2023-04-26T00:08:35;12.70;69.70
42199;DHT22;27868;45.184;5.786;2023-04-26T00:11:20;12.70;69.90
42199;DHT22;27868;45.184;5.786;2023-04-26T00:14:04;12.70;70.00
42199;DHT22;27868;45.184;5.786;2023-04-26T00:16:49;12.70;69.50
42199;DHT22;27868;45.184;5.786;2023-04-26T00:19:33;12.60;69.50
42199;DHT22;27868;45.184;5.786;2023-04-26T00:22:18;12.60;69.60
42199;DHT22;27868;45.184;5.786;2023-04-26T00:25:03;12.60;69.40
42199;DHT22;27868;45.184;5.786;2023-04-26T00:27:47;12.60;69.80
42199;DHT22;27868;45.184;5.786;2023-04-26T00:30:34;12.50;70.20
42199;DHT22;27868;45.184;5.786;2023-04-26T00:33:19;12.50;69.90
42199;DHT22;27868;45.184;5.786;2023-04-26T00:36:03;12.50;69.70
42199;DHT22;27868;45.184;5.786;2023-04-26T00:38:48;12.50;69.80
42199;DHT22;27868;45.184;5.786;2023-04-26T00:41:32;12.50;70.10
42199;DHT22;27868;45.184;5.786;2023-04-26T00:44:17;12.40;69.70
42199;DHT22;27868;45.184;5.786;2023-04-26T00:47:01;12.40;70.20
42199;DHT22;27868;45.184;5.786;2023-04-26T00:49:46;12.30;70.70
42199;DHT22;27868;45.184;5.786;2023-04-26T00:52:31;12.30;70.20
42199;DHT22;27868;45.184;5.786;2023-04-26T00:55:15;12.20;70.50
42199;DHT22;27868;45.184;5.786;2023-04-26T00:58:00;12.20;70.40
42199;DHT22;27868;45.184;5.786;2023-04-26T01:00:45;12.10;72.10
42199;DHT22;27868;45.184;5.786;2023-04-26T01:03:29;12.10;71.50
42199;DHT22;27868;45.184;5.786;2023-04-26T01:06:14;12.00;72.50
42199;DHT22;27868;45.184;5.786;2023-04-26T01:09:02;12.00;71.90
42199;DHT22;27868;45.184;5.786;2023-04-26T01:11:51;12.00;71.90
42199;DHT22;27868;45.184;5.786;2023-04-26T01:14:36;12.00;72.20
42199;DHT22;27868;45.184;5.786;2023-04-26T01:17:22;12.00;72.60
42199;DHT22;27868;45.184;5.786;2023-04-26T01:20:08;12.00;71.80
42199;DHT22;27868;45.184;5.786;2023-04-26T01:22:53;12.00;72.30
42199;DHT22;27868;45.184;5.786;2023-04-26T01:25:38;11.90;72.30
42199;DHT22;27868;45.184;5.786;2023-04-26T01:28:22;11.90;73.60
42199;DHT22;27868;45.184;5.786;2023-04-26T01:31:07;11.90;72.40
42199;DHT22;27868;45.184;5.786;2023-04-26T01:33:51;11.80;73.70
42199;DHT22;27868;45.184;5.786;2023-04-26T01:36:36;11.90;72.20
42199;DHT22;27868;45.184;5.786;2023-04-26T01:39:21;11.90;72.60
42199;DHT22;27868;45.184;5.786;2023-04-26T01:42:05;11.80;72.30
42199;DHT22;27868;45.184;5.786;2023-04-26T01:44:50;11.80;72.40
42199;DHT22;27868;45.184;5.786;2023-04-26T01:47:35;11.80;72.60
42199;DHT22;27868;45.184;5.786;2023-04-26T01:50:19;11.80;73.40
42199;DHT22;27868;45.184;5.786;2023-04-26T01:53:04;11.80;72.80
42199;DHT22;27868;45.184;5.786;2023-04-26T01:55:48;11.70;73.40
42199;DHT22;27868;45.184;5.786;2023-04-26T01:58:33;11.70;72.80
42199;DHT22;27868;45.184;5.786;2023-04-26T02:01:17;11.70;72.80
42199;DHT22;27868;45.184;5.786;2023-04-26T02:04:02;11.70;72.60
42199;DHT22;27868;45.184;5.786;2023-04-26T02:06:48;11.70;72.60
42199;DHT22;27868;45.184;5.786;2023-04-26T02:09:32;11.60;73.50
42199;DHT22;27868;45.184;5.786;2023-04-26T02:12:17;11.60;73.20
42199;DHT22;27868;45.184;5.786;2023-04-26T02:15:01;11.60;72.80
42199;DHT22;27868;45.184;5.786;2023-04-26T02:17:46;11.60;72.80
42199;DHT22;27868;45.184;5.786;2023-04-26T02:20:32;11.60;72.30
42199;DHT22;27868;45.184;5.786;2023-04-26T02:23:17;11.60;72.20
42199;DHT22;27868;45.184;5.786;2023-04-26T02:26:02;11.50;72.10
42199;DHT22;27868;45.184;5.786;2023-04-26T02:28:46;11.50;72.10
42199;DHT22;27868;45.184;5.786;2023-04-26T02:31:30;11.50;72.10
42199;DHT22;27868;45.184;5.786;2023-04-26T02:34:15;11.40;72.10
42199;DHT22;27868;45.184;5.786;2023-04-26T02:37:00;11.40;72.10
42199;DHT22;27868;45.184;5.786;2023-04-26T02:39:45;11.40;72.00
42199;DHT22;27868;45.184;5.786;2023-04-26T02:42:32;11.40;72.00
42199;DHT22;27868;45.184;5.786;2023-04-26T02:45:17;11.30;72.10
42199;DHT22;27868;45.184;5.786;2023-04-26T02:48:02;11.30;72.30
42199;DHT22;27868;45.184;5.786;2023-04-26T02:50:46;11.20;72.70
42199;DHT22;27868;45.184;5.786;2023-04-26T02:53:31;11.20;74.60
42199;DHT22;27868;45.184;5.786;2023-04-26T02:56:15;11.10;73.60
42199;DHT22;27868;45.184;5.786;2023-04-26T02:59:00;11.10;74.00
42199;DHT22;27868;45.184;5.786;2023-04-26T03:01:45;11.10;73.40
42199;DHT22;27868;45.184;5.786;2023-04-26T03:04:31;11.20;73.20
42199;DHT22;27868;45.184;5.786;2023-04-26T03:07:17;11.10;73.00
42199;DHT22;27868;45.184;5.786;2023-04-26T03:10:01;11.00;73.00
42199;DHT22;27868;45.184;5.786;2023-04-26T03:12:46;11.10;73.00
42199;DHT22;27868;45.184;5.786;2023-04-26T03:15:30;11.00;73.00
42199;DHT22;27868;45.184;5.786;2023-04-26T03:18:15;11.00;73.10
42199;DHT22;27868;45.184;5.786;2023-04-26T03:21:00;11.00;73.80
42199;DHT22;27868;45.184;5.786;2023-04-26T03:23:44;10.90;74.20
42199;DHT22;27868;45.184;5.786;2023-04-26T03:26:29;10.90;75.60
42199;DHT22;27868;45.184;5.786;2023-04-26T03:29:15;10.80;75.20
42199;DHT22;27868;45.184;5.786;2023-04-26T03:32:00;10.70;77.20
42199;DHT22;27868;45.184;5.786;2023-04-26T03:34:45;10.70;76.00
42199;DHT22;27868;45.184;5.786;2023-04-26T03:37:32;10.70;76.70
42199;DHT22;27868;45.184;5.786;2023-04-26T03:40:16;10.70;77.00
42199;DHT22;27868;45.184;5.786;2023-04-26T03:43:01;10.60;78.30
42199;DHT22;27868;45.184;5.786;2023-04-26T03:45:46;10.60;77.00
42199;DHT22;27868;45.184;5.786;2023-04-26T03:48:31;10.70;77.10
42199;DHT22;27868;45.184;5.786;2023-04-26T03:51:16;10.60;76.10
42199;DHT22;27868;45.184;5.786;2023-04-26T03:54:00;10.70;75.50
42199;DHT22;27868;45.184;5.786;2023-04-26T03:56:45;10.70;75.60
42199;DHT22;27868;45.184;5.786;2023-04-26T03:59:29;10.70;75.00
42199;DHT22;27868;45.184;5.786;2023-04-26T04:02:14;10.70;74.80
42199;DHT22;27868;45.184;5.786;2023-04-26T04:04:58;10.70;75.70
42199;DHT22;27868;45.184;5.786;2023-04-26T04:07:43;10.70;74.70
42199;DHT22;27868;45.184;5.786;2023-04-26T04:10:28;10.70;74.50
42199;DHT22;27868;45.184;5.786;2023-04-26T04:13:12;10.60;74.60
42199;DHT22;27868;45.184;5.786;2023-04-26T04:15:57;10.60;75.00
42199;DHT22;27868;45.184;5.786;2023-04-26T04:18:42;10.60;74.90
42199;DHT22;27868;45.184;5.786;2023-04-26T04:21:26;10.60;75.40
42199;DHT22;27868;45.184;5.786;2023-04-26T04:24:10;10.50;74.70
42199;DHT22;27868;45.184;5.786;2023-04-26T04:26:55;10.50;74.70
42199;DHT22;27868;45.184;5.786;2023-04-26T04:29:40;10.50;75.00
42199;DHT22;27868;45.184;5.786;2023-04-26T04:32:25;10.40;75.20
42199;DHT22;27868;45.184;5.786;2023-04-26T04:35:11;10.50;75.20
42199;DHT22;27868;45.184;5.786;2023-04-26T04:37:56;10.40;75.20
42199;DHT22;27868;45.184;5.786;2023-04-26T04:40:41;10.40;75.20
42199;DHT22;27868;45.184;5.786;2023-04-26T04:43:25;10.40;75.30
42199;DHT22;27868;45.184;5.786;2023-04-26T04:46:11;10.40;75.50
42199;DHT22;27868;45.184;5.786;2023-04-26T04:48:56;10.40;75.50
42199;DHT22;27868;45.184;5.786;2023-04-26T04:51:40;10.40;75.40
42199;DHT22;27868;45.184;5.786;2023-04-26T04:54:25;10.40;75.50
42199;DHT22;27868;45.184;5.786;2023-04-26T04:57:10;10.40;75.50
42199;DHT22;27868;45.184;5.786;2023-04-26T04:59:54;10.30;75.90
42199;DHT22;27868;45.184;5.786;2023-04-26T05:02:39;10.30;75.60
42199;DHT22;27868;45.184;5.786;2023-04-26T05:05:23;10.30;75.50
42199;DHT22;27868;45.184;5.786;2023-04-26T05:08:08;10.30;76.60
42199;DHT22;27868;45.184;5.786;2023-04-26T05:10:52;10.20;76.80
42199;DHT22;27868;45.184;5.786;2023-04-26T05:13:37;10.20;77.50
42199;DHT22;27868;45.184;5.786;2023-04-26T05:16:22;10.20;76.70
42199;DHT22;27868;45.184;5.786;2023-04-26T05:19:06;10.20;76.50
42199;DHT22;27868;45.184;5.786;2023-04-26T05:21:51;10.20;76.40
42199;DHT22;27868;45.184;5.786;2023-04-26T05:24:35;10.20;76.20
42199;DHT22;27868;45.184;5.786;2023-04-26T05:27:20;10.30;76.40
42199;DHT22;27868;45.184;5.786;2023-04-26T05:30:05;10.20;76.80
42199;DHT22;27868;45.184;5.786;2023-04-26T05:32:50;10.20;76.80
42199;DHT22;27868;45.184;5.786;2023-04-26T05:35:34;10.20;77.00
42199;DHT22;27868;45.184;5.786;2023-04-26T05:41:01;10.20;77.60
42199;DHT22;27868;45.184;5.786;2023-04-26T05:43:46;10.20;77.60
42199;DHT22;27868;45.184;5.786;2023-04-26T05:46:30;10.20;77.20
42199;DHT22;27868;45.184;5.786;2023-04-26T05:49:15;10.20;78.80
42199;DHT22;27868;45.184;5.786;2023-04-26T05:51:59;10.20;77.40
42199;DHT22;27868;45.184;5.786;2023-04-26T05:54:44;10.30;78.20
42199;DHT22;27868;45.184;5.786;2023-04-26T05:57:29;10.20;77.60
42199;DHT22;27868;45.184;5.786;2023-04-26T06:00:14;10.30;78.10
42199;DHT22;27868;45.184;5.786;2023-04-26T06:02:59;10.30;79.00
42199;DHT22;27868;45.184;5.786;2023-04-26T06:05:43;10.20;78.10
42199;DHT22;27868;45.184;5.786;2023-04-26T06:08:28;10.30;77.70
42199;DHT22;27868;45.184;5.786;2023-04-26T06:11:12;10.30;77.60
42199;DHT22;27868;45.184;5.786;2023-04-26T06:13:57;10.30;78.50
42199;DHT22;27868;45.184;5.786;2023-04-26T06:16:41;10.30;77.60
42199;DHT22;27868;45.184;5.786;2023-04-26T06:19:26;10.30;77.90
42199;DHT22;27868;45.184;5.786;2023-04-26T06:22:10;10.40;78.70
42199;DHT22;27868;45.184;5.786;2023-04-26T06:24:55;10.40;77.90
42199;DHT22;27868;45.184;5.786;2023-04-26T06:27:39;10.40;78.50
42199;DHT22;27868;45.184;5.786;2023-04-26T06:30:24;10.40;78.50
42199;DHT22;27868;45.184;5.786;2023-04-26T06:33:08;10.50;79.20
42199;DHT22;27868;45.184;5.786;2023-04-26T06:35:53;10.50;79.60
42199;DHT22;27868;45.184;5.786;2023-04-26T06:38:37;10.50;79.40
42199;DHT22;27868;45.184;5.786;2023-04-26T06:41:22;10.60;80.60
42199;DHT22;27868;45.184;5.786;2023-04-26T06:44:06;10.70;79.20
42199;DHT22;27868;45.184;5.786;2023-04-26T06:46:54;10.70;79.50
42199;DHT22;27868;45.184;5.786;2023-04-26T06:49:39;10.80;79.30
42199;DHT22;27868;45.184;5.786;2023-04-26T06:52:24;10.80;79.10
42199;DHT22;27868;45.184;5.786;2023-04-26T06:55:09;10.90;79.10
42199;DHT22;27868;45.184;5.786;2023-04-26T06:57:53;11.00;79.40
42199;DHT22;27868;45.184;5.786;2023-04-26T07:00:38;11.00;78.50
42199;DHT22;27868;45.184;5.786;2023-04-26T07:03:23;10.90;79.20
42199;DHT22;27868;45.184;5.786;2023-04-26T07:06:09;11.00;78.80
42199;DHT22;27868;45.184;5.786;2023-04-26T07:08:54;11.00;78.10
42199;DHT22;27868;45.184;5.786;2023-04-26T07:11:38;11.10;78.20
42199;DHT22;27868;45.184;5.786;2023-04-26T07:14:23;10.90;78.40
42199;DHT22;27868;45.184;5.786;2023-04-26T07:17:08;10.90;78.00
42199;DHT22;27868;45.184;5.786;2023-04-26T07:19:53;11.00;78.50
42199;DHT22;27868;45.184;5.786;2023-04-26T07:22:37;11.00;77.00
42199;DHT22;27868;45.184;5.786;2023-04-26T07:25:22;10.90;77.40
42199;DHT22;27868;45.184;5.786;2023-04-26T07:28:06;10.90;77.60
42199;DHT22;27868;45.184;5.786;2023-04-26T07:30:52;10.90;77.90
42199;DHT22;27868;45.184;5.786;2023-04-26T07:33:36;11.00;77.80
42199;DHT22;27868;45.184;5.786;2023-04-26T07:36:21;11.00;77.20
42199;DHT22;27868;45.184;5.786;2023-04-26T07:39:06;11.00;76.40
42199;DHT22;27868;45.184;5.786;2023-04-26T07:41:53;11.10;77.40
42199;DHT22;27868;45.184;5.786;2023-04-26T07:44:37;11.10;77.40
42199;DHT22;27868;45.184;5.786;2023-04-26T07:47:22;11.10;77.00
42199;DHT22;27868;45.184;5.786;2023-04-26T07:50:06;11.20;76.30
42199;DHT22;27868;45.184;5.786;2023-04-26T07:52:51;11.30;77.40
42199;DHT22;27868;45.184;5.786;2023-04-26T07:55:36;11.20;76.80
42199;DHT22;27868;45.184;5.786;2023-04-26T07:58:20;11.30;76.50
42199;DHT22;27868;45.184;5.786;2023-04-26T08:01:05;11.30;76.30
42199;DHT22;27868;45.184;5.786;2023-04-26T08:03:50;11.30;75.30
42199;DHT22;27868;45.184;5.786;2023-04-26T08:06:34;11.40;75.30
42199;DHT22;27868;45.184;5.786;2023-04-26T08:09:19;11.40;75.50
42199;DHT22;27868;45.184;5.786;2023-04-26T08:12:04;11.40;75.90
42199;DHT22;27868;45.184;5.786;2023-04-26T08:14:49;11.50;75.10
42199;DHT22;27868;45.184;5.786;2023-04-26T08:17:34;11.50;75.00
42199;DHT22;27868;45.184;5.786;2023-04-26T08:20:18;11.50;76.40
42199;DHT22;27868;45.184;5.786;2023-04-26T08:23:02;11.50;75.50
42199;DHT22;27868;45.184;5.786;2023-04-26T08:25:47;11.50;75.80
42199;DHT22;27868;45.184;5.786;2023-04-26T08:28:33;11.50;73.50
42199;DHT22;27868;45.184;5.786;2023-04-26T08:31:18;11.60;75.10
42199;DHT22;27868;45.184;5.786;2023-04-26T08:34:03;11.70;72.90
42199;DHT22;27868;45.184;5.786;2023-04-26T08:36:47;11.70;72.50
42199;DHT22;27868;45.184;5.786;2023-04-26T08:39:32;11.70;72.90
42199;DHT22;27868;45.184;5.786;2023-04-26T08:42:17;11.80;72.90
42199;DHT22;27868;45.184;5.786;2023-04-26T08:45:01;11.90;73.60
42199;DHT22;27868;45.184;5.786;2023-04-26T08:47:47;11.90;72.80
42199;DHT22;27868;45.184;5.786;2023-04-26T08:50:31;12.00;72.40
42199;DHT22;27868;45.184;5.786;2023-04-26T08:53:17;12.00;70.90
42199;DHT22;27868;45.184;5.786;2023-04-26T08:56:01;12.10;71.10
42199;DHT22;27868;45.184;5.786;2023-04-26T08:58:47;12.10;70.80
42199;DHT22;27868;45.184;5.786;2023-04-26T09:01:32;12.10;71.70
42199;DHT22;27868;45.184;5.786;2023-04-26T09:04:16;12.20;69.20
42199;DHT22;27868;45.184;5.786;2023-04-26T09:07:03;12.20;70.90
42199;DHT22;27868;45.184;5.786;2023-04-26T09:09:48;12.30;69.00
42199;DHT22;27868;45.184;5.786;2023-04-26T09:12:36;12.30;68.50
42199;DHT22;27868;45.184;5.786;2023-04-26T09:15:21;12.40;68.90
42199;DHT22;27868;45.184;5.786;2023-04-26T09:18:16;12.50;69.00
42199;DHT22;27868;45.184;5.786;2023-04-26T09:21:05;12.50;68.80
42199;DHT22;27868;45.184;5.786;2023-04-26T09:23:59;12.60;68.30
42199;DHT22;27868;45.184;5.786;2023-04-26T09:26:55;12.70;68.00
42199;DHT22;27868;45.184;5.786;2023-04-26T09:29:57;12.70;67.50
42199;DHT22;27868;45.184;5.786;2023-04-26T09:32:47;12.70;70.60
42199;DHT22;27868;45.184;5.786;2023-04-26T09:35:33;12.70;70.20
42199;DHT22;27868;45.184;5.786;2023-04-26T09:38:17;12.80;70.30
42199;DHT22;27868;45.184;5.786;2023-04-26T09:41:02;12.90;70.80
42199;DHT22;27868;45.184;5.786;2023-04-26T09:43:48;13.00;68.70
42199;DHT22;27868;45.184;5.786;2023-04-26T09:46:33;13.10;67.70
42199;DHT22;27868;45.184;5.786;2023-04-26T09:49:17;13.20;69.40
42199;DHT22;27868;45.184;5.786;2023-04-26T09:52:05;13.20;70.30
42199;DHT22;27868;45.184;5.786;2023-04-26T09:54:51;13.20;68.00
42199;DHT22;27868;45.184;5.786;2023-04-26T09:57:41;13.30;67.80
42199;DHT22;27868;45.184;5.786;2023-04-26T10:00:26;13.40;67.80
42199;DHT22;27868;45.184;5.786;2023-04-26T10:03:11;13.50;65.00
42199;DHT22;27868;45.184;5.786;2023-04-26T10:05:56;13.60;66.60
42199;DHT22;27868;45.184;5.786;2023-04-26T10:08:40;13.60;67.90
42199;DHT22;27868;45.184;5.786;2023-04-26T10:11:25;13.70;67.50
42199;DHT22;27868;45.184;5.786;2023-04-26T10:14:09;13.90;63.70
42199;DHT22;27868;45.184;5.786;2023-04-26T10:16:55;13.90;66.60
42199;DHT22;27868;45.184;5.786;2023-04-26T10:19:41;14.00;66.10
42199;DHT22;27868;45.184;5.786;2023-04-26T10:22:30;14.10;64.90
42199;DHT22;27868;45.184;5.786;2023-04-26T10:25:19;14.20;64.10
42199;DHT22;27868;45.184;5.786;2023-04-26T10:28:05;14.30;64.20
42199;DHT22;27868;45.184;5.786;2023-04-26T10:30:56;14.40;63.60
42199;DHT22;27868;45.184;5.786;2023-04-26T10:33:41;14.50;61.90
42199;DHT22;27868;45.184;5.786;2023-04-26T10:36:26;14.70;62.90
42199;DHT22;27868;45.184;5.786;2023-04-26T10:39:18;14.80;63.60
42199;DHT22;27868;45.184;5.786;2023-04-26T10:42:26;14.90;63.10
42199;DHT22;27868;45.184;5.786;2023-04-26T10:45:27;15.00;63.30
42199;DHT22;27868;45.184;5.786;2023-04-26T10:48:15;15.20;62.80
42199;DHT22;27868;45.184;5.786;2023-04-26T10:59:23;15.90;60.70
42199;DHT22;27868;45.184;5.786;2023-04-26T11:02:10;16.10;57.80
42199;DHT22;27868;45.184;5.786;2023-04-26T11:04:55;16.20;57.60
42199;DHT22;27868;45.184;5.786;2023-04-26T11:07:41;16.30;58.40
42199;DHT22;27868;45.184;5.786;2023-04-26T11:10:26;16.40;59.00
42199;DHT22;27868;45.184;5.786;2023-04-26T11:13:10;16.60;59.20
42199;DHT22;27868;45.184;5.786;2023-04-26T11:15:58;16.80;59.10
42199;DHT22;27868;45.184;5.786;2023-04-26T11:18:44;17.10;57.60
42199;DHT22;27868;45.184;5.786;2023-04-26T11:21:29;17.30;57.90
42199;DHT22;27868;45.184;5.786;2023-04-26T11:24:16;17.60;57.70
42199;DHT22;27868;45.184;5.786;2023-04-26T11:27:00;17.80;58.00
42199;DHT22;27868;45.184;5.786;2023-04-26T11:29:46;18.10;57.40
42199;DHT22;27868;45.184;5.786;2023-04-26T11:32:31;18.40;55.70
42199;DHT22;27868;45.184;5.786;2023-04-26T11:35:16;18.60;57.00
42199;DHT22;27868;45.184;5.786;2023-04-26T11:38:03;18.90;56.50
42199;DHT22;27868;45.184;5.786;2023-04-26T11:40:52;19.20;55.50
42199;DHT22;27868;45.184;5.786;2023-04-26T11:43:37;19.40;55.50
42199;DHT22;27868;45.184;5.786;2023-04-26T11:46:22;19.80;54.30
42199;DHT22;27868;45.184;5.786;2023-04-26T11:49:07;20.00;51.40
42199;DHT22;27868;45.184;5.786;2023-04-26T11:51:52;20.10;51.90
42199;DHT22;27868;45.184;5.786;2023-04-26T11:54:36;20.40;49.70
42199;DHT22;27868;45.184;5.786;2023-04-26T11:57:21;20.60;51.00
42199;DHT22;27868;45.184;5.786;2023-04-26T12:00:06;20.80;50.20
42199;DHT22;27868;45.184;5.786;2023-04-26T12:02:52;21.00;49.00
42199;DHT22;27868;45.184;5.786;2023-04-26T12:05:36;21.20;50.40
42199;DHT22;27868;45.184;5.786;2023-04-26T12:08:25;21.40;47.50
42199;DHT22;27868;45.184;5.786;2023-04-26T12:11:10;21.70;46.20
42199;DHT22;27868;45.184;5.786;2023-04-26T12:13:59;21.90;47.10
42199;DHT22;27868;45.184;5.786;2023-04-26T12:16:45;22.10;45.30
42199;DHT22;27868;45.184;5.786;2023-04-26T12:19:33;22.10;45.90
42199;DHT22;27868;45.184;5.786;2023-04-26T12:22:19;22.20;46.50
42199;DHT22;27868;45.184;5.786;2023-04-26T12:25:05;22.40;47.40
42199;DHT22;27868;45.184;5.786;2023-04-26T12:27:50;22.60;44.90
42199;DHT22;27868;45.184;5.786;2023-04-26T12:30:34;22.80;47.00
42199;DHT22;27868;45.184;5.786;2023-04-26T12:33:19;23.10;45.50
42199;DHT22;27868;45.184;5.786;2023-04-26T12:36:09;23.30;45.10
42199;DHT22;27868;45.184;5.786;2023-04-26T12:38:54;23.40;39.80
42199;DHT22;27868;45.184;5.786;2023-04-26T12:41:40;23.30;39.90
42199;DHT22;27868;45.184;5.786;2023-04-26T12:44:25;23.50;43.20
42199;DHT22;27868;45.184;5.786;2023-04-26T12:47:09;23.70;41.20
42199;DHT22;27868;45.184;5.786;2023-04-26T12:49:53;24.00;41.90
42199;DHT22;27868;45.184;5.786;2023-04-26T12:52:38;23.90;32.90
42199;DHT22;27868;45.184;5.786;2023-04-26T12:55:23;23.80;39.10
42199;DHT22;27868;45.184;5.786;2023-04-26T12:58:08;23.80;40.80
42199;DHT22;27868;45.184;5.786;2023-04-26T13:00:52;23.90;41.20
42199;DHT22;27868;45.184;5.786;2023-04-26T13:03:38;24.10;42.80
42199;DHT22;27868;45.184;5.786;2023-04-26T13:06:22;24.50;39.50
42199;DHT22;27868;45.184;5.786;2023-04-26T13:09:07;24.60;40.80
42199;DHT22;27868;45.184;5.786;2023-04-26T13:11:51;24.80;40.40
42199;DHT22;27868;45.184;5.786;2023-04-26T13:14:36;25.10;39.70
42199;DHT22;27868;45.184;5.786;2023-04-26T13:17:23;25.00;33.90
42199;DHT22;27868;45.184;5.786;2023-04-26T13:20:08;24.80;36.40
42199;DHT22;27868;45.184;5.786;2023-04-26T13:22:52;25.00;37.90
42199;DHT22;27868;45.184;5.786;2023-04-26T13:25:37;24.80;35.80
42199;DHT22;27868;45.184;5.786;2023-04-26T13:28:21;25.00;36.90
42199;DHT22;27868;45.184;5.786;2023-04-26T13:31:06;25.20;37.50
42199;DHT22;27868;45.184;5.786;2023-04-26T13:33:50;25.30;37.30
42199;DHT22;27868;45.184;5.786;2023-04-26T13:36:35;25.40;38.00
42199;DHT22;27868;45.184;5.786;2023-04-26T13:39:19;25.50;38.00
42199;DHT22;27868;45.184;5.786;2023-04-26T13:42:04;25.70;37.80
42199;DHT22;27868;45.184;5.786;2023-04-26T13:44:49;25.50;36.40
42199;DHT22;27868;45.184;5.786;2023-04-26T13:47:34;25.60;38.30
42199;DHT22;27868;45.184;5.786;2023-04-26T13:50:19;25.80;38.70
42199;DHT22;27868;45.184;5.786;2023-04-26T13:53:04;25.90;38.60
42199;DHT22;27868;45.184;5.786;2023-04-26T13:55:48;26.00;37.80
42199;DHT22;27868;45.184;5.786;2023-04-26T13:58:33;26.10;38.80
42199;DHT22;27868;45.184;5.786;2023-04-26T14:01:17;26.10;39.00
42199;DHT22;27868;45.184;5.786;2023-04-26T14:04:02;26.20;37.20
42199;DHT22;27868;45.184;5.786;2023-04-26T14:06:47;25.80;38.50
42199;DHT22;27868;45.184;5.786;2023-04-26T14:09:32;25.50;38.10
42199;DHT22;27868;45.184;5.786;2023-04-26T14:12:16;25.60;38.90
42199;DHT22;27868;45.184;5.786;2023-04-26T14:15:01;25.90;38.60
42199;DHT22;27868;45.184;5.786;2023-04-26T14:17:47;26.00;36.90
42199;DHT22;27868;45.184;5.786;2023-04-26T14:20:32;25.80;29.20
42199;DHT22;27868;45.184;5.786;2023-04-26T14:23:17;25.80;36.60
42199;DHT22;27868;45.184;5.786;2023-04-26T14:26:01;25.70;32.90
42199;DHT22;27868;45.184;5.786;2023-04-26T14:28:46;25.70;36.60
42199;DHT22;27868;45.184;5.786;2023-04-26T14:31:31;25.80;37.00
42199;DHT22;27868;45.184;5.786;2023-04-26T14:34:16;25.90;36.30
42199;DHT22;27868;45.184;5.786;2023-04-26T14:37:00;26.00;35.90
42199;DHT22;27868;45.184;5.786;2023-04-26T14:39:47;26.10;35.90
42199;DHT22;27868;45.184;5.786;2023-04-26T14:42:32;26.10;36.00
42199;DHT22;27868;45.184;5.786;2023-04-26T14:45:16;26.10;36.10
42199;DHT22;27868;45.184;5.786;2023-04-26T14:48:01;26.10;35.90
42199;DHT22;27868;45.184;5.786;2023-04-26T14:50:45;26.00;35.50
42199;DHT22;27868;45.184;5.786;2023-04-26T14:53:30;25.70;34.70
42199;DHT22;27868;45.184;5.786;2023-04-26T14:56:14;25.60;35.20
42199;DHT22;27868;45.184;5.786;2023-04-26T14:58:59;25.60;35.80
42199;DHT22;27868;45.184;5.786;2023-04-26T15:01:44;25.60;35.70
42199;DHT22;27868;45.184;5.786;2023-04-26T15:04:29;25.60;35.40
42199;DHT22;27868;45.184;5.786;2023-04-26T15:07:13;25.60;36.70
42199;DHT22;27868;45.184;5.786;2023-04-26T15:09:58;25.50;36.50
42199;DHT22;27868;45.184;5.786;2023-04-26T15:12:43;25.40;36.40
42199;DHT22;27868;45.184;5.786;2023-04-26T15:15:28;25.40;36.10
42199;DHT22;27868;45.184;5.786;2023-04-26T15:18:13;25.30;33.60
42199;DHT22;27868;45.184;5.786;2023-04-26T15:20:57;25.20;36.50
42199;DHT22;27868;45.184;5.786;2023-04-26T15:23:42;25.10;37.20
42199;DHT22;27868;45.184;5.786;2023-04-26T15:26:27;25.10;35.30
42199;DHT22;27868;45.184;5.786;2023-04-26T15:29:14;25.20;36.10
42199;DHT22;27868;45.184;5.786;2023-04-26T15:31:58;25.10;36.50
42199;DHT22;27868;45.184;5.786;2023-04-26T15:34:43;25.10;36.30
42199;DHT22;27868;45.184;5.786;2023-04-26T15:37:28;25.00;36.80
42199;DHT22;27868;45.184;5.786;2023-04-26T15:40:12;24.70;37.30
42199;DHT22;27868;45.184;5.786;2023-04-26T15:42:57;24.50;38.00
42199;DHT22;27868;45.184;5.786;2023-04-26T15:45:41;24.40;37.80
42199;DHT22;27868;45.184;5.786;2023-04-26T15:48:26;24.30;38.50
42199;DHT22;27868;45.184;5.786;2023-04-26T15:51:10;24.20;38.70
42199;DHT22;27868;45.184;5.786;2023-04-26T15:53:55;24.10;39.40
42199;DHT22;27868;45.184;5.786;2023-04-26T15:56:40;24.10;39.70
42199;DHT22;27868;45.184;5.786;2023-04-26T15:59:25;24.00;39.70
42199;DHT22;27868;45.184;5.786;2023-04-26T16:02:10;24.00;40.60
42199;DHT22;27868;45.184;5.786;2023-04-26T16:04:54;23.90;41.20
42199;DHT22;27868;45.184;5.786;2023-04-26T16:07:39;23.80;41.40
42199;DHT22;27868;45.184;5.786;2023-04-26T16:10:24;23.70;41.20
42199;DHT22;27868;45.184;5.786;2023-04-26T16:13:09;23.60;41.20
42199;DHT22;27868;45.184;5.786;2023-04-26T16:15:54;23.60;41.40
42199;DHT22;27868;45.184;5.786;2023-04-26T16:18:39;23.60;41.30
42199;DHT22;27868;45.184;5.786;2023-04-26T16:21:23;23.50;41.30
42199;DHT22;27868;45.184;5.786;2023-04-26T16:24:08;23.40;41.50
42199;DHT22;27868;45.184;5.786;2023-04-26T16:26:54;23.30;41.90
42199;DHT22;27868;45.184;5.786;2023-04-26T16:29:39;23.40;41.90
42199;DHT22;27868;45.184;5.786;2023-04-26T16:32:23;23.30;42.00
42199;DHT22;27868;45.184;5.786;2023-04-26T16:35:09;23.30;42.20
42199;DHT22;27868;45.184;5.786;2023-04-26T16:37:53;23.10;41.70
42199;DHT22;27868;45.184;5.786;2023-04-26T16:40:38;22.90;41.10
42199;DHT22;27868;45.184;5.786;2023-04-26T16:43:31;22.70;42.10
42199;DHT22;27868;45.184;5.786;2023-04-26T16:46:16;22.50;42.50
42199;DHT22;27868;45.184;5.786;2023-04-26T16:49:00;22.50;43.90
42199;DHT22;27868;45.184;5.786;2023-04-26T16:51:45;22.50;44.50
42199;DHT22;27868;45.184;5.786;2023-04-26T16:54:36;22.40;44.20
42199;DHT22;27868;45.184;5.786;2023-04-26T16:57:21;22.40;44.90
42199;DHT22;27868;45.184;5.786;2023-04-26T17:00:05;22.40;45.20
42199;DHT22;27868;45.184;5.786;2023-04-26T17:02:54;22.30;44.50
42199;DHT22;27868;45.184;5.786;2023-04-26T17:05:42;22.20;44.80
42199;DHT22;27868;45.184;5.786;2023-04-26T17:08:27;22.20;44.80
42199;DHT22;27868;45.184;5.786;2023-04-26T17:11:12;22.10;44.90
42199;DHT22;27868;45.184;5.786;2023-04-26T17:13:58;22.00;43.90
42199;DHT22;27868;45.184;5.786;2023-04-26T17:16:42;21.90;45.30
42199;DHT22;27868;45.184;5.786;2023-04-26T17:19:27;21.80;45.00
42199;DHT22;27868;45.184;5.786;2023-04-26T17:22:11;21.80;45.60
42199;DHT22;27868;45.184;5.786;2023-04-26T17:24:56;21.60;44.90
42199;DHT22;27868;45.184;5.786;2023-04-26T17:27:41;21.70;45.80
42199;DHT22;27868;45.184;5.786;2023-04-26T17:30:25;21.70;46.50
42199;DHT22;27868;45.184;5.786;2023-04-26T17:33:10;21.70;46.80